Aviation Digital Data Service (ADDS)

Output produced by METARs form (0310 UTC 01 November 2014)
found at http://www.aviationweather.gov/adds/metars/
 
KESN 010311Z AUTO 02004KT 10SM SCT043 SCT048 BKN060 09/05 A2986 RMK AO2 T00900053